Time;durP1;ratioP1;P1;durP2;ratioP2;P2;SDS_P1;SDS_P2;PMS_P1;PMS_P2;Temp;Humidity;BMP_temperature;BMP_pressure;BME280_temperature;BME280_humidity;BME280_pressure;Samples;Min_cycle;Max_cycle;Signal;HPM_P1;HPM_P2
2024/03/30 00:00:59;;;;;;;7.60;7.10;;;13.40;29.40;;;;;;4921441;29;20200;-80
2024/03/30 00:03:25;;;;;;;7.10;6.70;;;13.40;29.80;;;;;;4912731;29;20429;-80
2024/03/30 00:06:01;;;;;;;7.73;6.97;;;13.40;29.10;;;;;;4913368;29;20527;-81
2024/03/30 00:08:27;;;;;;;7.77;7.10;;;13.50;28.90;;;;;;4921216;29;20278;-80
2024/03/30 00:11:00;;;;;;;6.80;6.20;;;13.40;29.00;;;;;;4920978;29;20546;-81
2024/03/30 00:13:26;;;;;;;6.77;6.27;;;13.40;29.00;;;;;;4936369;29;20274;-81
2024/03/30 00:15:52;;;;;;;7.30;6.90;;;13.40;29.10;;;;;;4920563;29;20451;-81
2024/03/30 00:18:17;;;;;;;8.43;7.73;;;13.30;29.10;;;;;;4920776;29;20793;-80
2024/03/30 00:20:43;;;;;;;9.83;7.50;;;13.30;29.10;;;;;;4927284;29;20228;-81
2024/03/30 00:23:08;;;;;;;7.80;7.00;;;13.30;29.30;;;;;;4924573;29;20207;-81
2024/03/30 00:25:34;;;;;;;7.63;7.10;;;13.40;29.20;;;;;;4904587;29;20203;-82
2024/03/30 00:27:59;;;;;;;7.90;7.20;;;13.40;29.20;;;;;;4901874;29;20189;-80
2024/03/30 00:30:26;;;;;;;7.83;7.27;;;13.30;29.10;;;;;;4901688;29;20391;-81
2024/03/30 00:32:51;;;;;;;8.10;7.37;;;13.30;29.10;;;;;;4922528;29;20184;-80
2024/03/30 00:35:17;;;;;;;7.63;7.03;;;13.30;29.00;;;;;;4921075;29;20485;-81
2024/03/30 00:37:43;;;;;;;6.83;6.23;;;13.30;29.00;;;;;;4920435;29;20192;-82
2024/03/30 00:40:09;;;;;;;8.13;7.50;;;13.30;29.00;;;;;;4920324;29;20200;-81
2024/03/30 00:42:34;;;;;;;9.77;7.30;;;13.30;29.10;;;;;;4911986;29;20251;-81
2024/03/30 00:45:00;;;;;;;8.07;7.30;;;13.30;29.20;;;;;;4902006;29;20527;-81
2024/03/30 00:47:26;;;;;;;8.30;7.37;;;13.30;29.10;;;;;;4914219;29;20215;-81
2024/03/30 00:49:52;;;;;;;7.07;6.57;;;13.20;28.90;;;;;;4913407;29;20227;-83
2024/03/30 00:52:18;;;;;;;9.80;7.43;;;13.20;28.70;;;;;;4939693;29;20979;-81
2024/03/30 00:54:43;;;;;;;7.13;6.63;;;13.20;28.90;;;;;;4927507;29;20191;-81
2024/03/30 00:57:09;;;;;;;8.20;7.50;;;13.20;28.90;;;;;;4927599;29;20183;-81
2024/03/30 00:59:36;;;;;;;10.13;7.63;;;13.20;28.70;;;;;;4927522;29;20243;-81
2024/03/30 01:02:02;;;;;;;8.70;7.40;;;13.10;28.60;;;;;;4914949;29;20196;-80
2024/03/30 01:04:29;;;;;;;9.63;7.30;;;13.20;28.70;;;;;;4926047;29;20480;-80
2024/03/30 01:06:58;;;;;;;7.53;6.83;;;13.20;28.80;;;;;;4911766;29;20222;-80
2024/03/30 01:09:25;;;;;;;8.50;7.30;;;13.20;28.30;;;;;;4942921;29;20479;-81
2024/03/30 01:11:51;;;;;;;8.47;7.40;;;13.20;28.20;;;;;;4927005;29;20435;-80
2024/03/30 01:14:18;;;;;;;8.63;7.73;;;13.20;28.10;;;;;;4923748;29;20447;-81
2024/03/30 01:16:45;;;;;;;8.10;7.10;;;13.20;28.30;;;;;;4910620;29;20539;-80
2024/03/30 01:19:10;;;;;;;11.40;7.40;;;13.20;28.40;;;;;;4926482;29;20454;-81
2024/03/30 01:21:36;;;;;;;8.90;6.80;;;13.20;28.60;;;;;;4926060;29;20447;-80
2024/03/30 01:24:02;;;;;;;7.30;6.70;;;13.20;28.50;;;;;;4922092;29;20203;-80
2024/03/30 01:26:28;;;;;;;9.70;7.50;;;13.20;28.70;;;;;;4906717;29;20798;-81
2024/03/30 01:28:57;;;;;;;10.70;8.17;;;13.20;28.80;;;;;;4923323;29;20315;-80
2024/03/30 01:31:23;;;;;;;9.20;7.73;;;13.20;28.80;;;;;;4907494;29;20452;-80
2024/03/30 01:33:49;;;;;;;9.30;7.43;;;13.20;28.60;;;;;;4907400;29;20444;-80
2024/03/30 01:36:14;;;;;;;10.73;7.90;;;13.10;28.50;;;;;;4907010;29;20432;-80
2024/03/30 01:38:40;;;;;;;8.97;8.27;;;13.20;28.50;;;;;;4907219;29;20232;-81
2024/03/30 01:41:05;;;;;;;14.50;7.60;;;13.20;28.50;;;;;;4907397;29;20215;-81
2024/03/30 01:43:31;;;;;;;10.13;7.53;;;13.10;28.40;;;;;;4906975;29;20679;-81
2024/03/30 01:45:58;;;;;;;16.03;7.80;;;13.20;28.30;;;;;;4907013;29;20191;-80
2024/03/30 01:48:24;;;;;;;11.50;7.80;;;13.10;28.30;;;;;;4906821;29;20275;-82
2024/03/30 01:50:51;;;;;;;9.63;8.00;;;13.10;28.50;;;;;;4932943;29;20502;-82
2024/03/30 01:53:20;;;;;;;11.93;8.20;;;13.10;28.40;;;;;;4942453;29;20475;-80
2024/03/30 01:55:48;;;;;;;9.00;7.80;;;13.10;28.40;;;;;;4925003;29;20434;-81
2024/03/30 01:58:23;;;;;;;9.23;8.30;;;13.10;28.90;;;;;;4942651;29;20431;-80
2024/03/30 02:00:49;;;;;;;9.87;8.03;;;13.00;29.10;;;;;;4940533;29;22938;-80
2024/03/30 02:03:16;;;;;;;9.10;8.20;;;12.90;29.20;;;;;;4920828;29;20441;-81
2024/03/30 02:05:42;;;;;;;8.90;8.00;;;12.80;29.30;;;;;;4919226;29;20445;-82
2024/03/30 02:08:09;;;;;;;9.07;8.00;;;12.80;29.90;;;;;;4921532;29;20524;-81
2024/03/30 02:10:36;;;;;;;9.93;8.33;;;12.80;29.90;;;;;;4903248;29;20486;-81
2024/03/30 02:13:02;;;;;;;10.43;9.10;;;12.80;29.80;;;;;;4903727;29;20445;-81
2024/03/30 02:15:28;;;;;;;10.00;8.17;;;12.80;29.30;;;;;;4904016;29;20464;-81
2024/03/30 02:17:54;;;;;;;10.23;8.70;;;12.80;29.70;;;;;;4905028;29;20527;-81
2024/03/30 02:20:19;;;;;;;13.37;8.60;;;12.80;29.40;;;;;;4904295;29;20231;-81
2024/03/30 02:22:50;;;;;;;12.73;9.47;;;12.80;29.00;;;;;;4921964;29;20311;-81
2024/03/30 02:25:17;;;;;;;28.27;11.20;;;12.90;28.50;;;;;;4921821;29;20192;-81
2024/03/30 02:27:42;;;;;;;21.97;11.40;;;12.90;26.60;;;;;;4906168;29;20448;-82
2024/03/30 02:30:10;;;;;;;32.27;11.93;;;12.90;25.20;;;;;;4923104;29;20511;-80
2024/03/30 02:32:36;;;;;;;29.43;11.90;;;13.00;23.10;;;;;;4915138;29;20256;-81
2024/03/30 02:35:02;;;;;;;46.57;13.67;;;13.10;21.00;;;;;;4928964;29;20433;-80
2024/03/30 02:37:28;;;;;;;38.20;12.33;;;13.20;17.10;;;;;;4907596;29;20197;-80
2024/03/30 02:39:53;;;;;;;41.50;12.33;;;13.20;17.50;;;;;;4922890;29;20456;-80
2024/03/30 02:42:19;;;;;;;47.50;13.20;;;13.40;14.40;;;;;;4925467;29;20440;-80
2024/03/30 02:44:44;;;;;;;47.30;14.07;;;13.50;16.00;;;;;;4905534;29;20201;-80
2024/03/30 02:47:10;;;;;;;37.30;12.63;;;13.60;15.00;;;;;;4907147;29;20266;-80
2024/03/30 02:49:35;;;;;;;38.13;13.13;;;13.70;14.30;;;;;;4929562;29;20220;-81
2024/03/30 02:52:01;;;;;;;36.43;11.60;;;13.70;14.00;;;;;;4922672;29;20194;-80
2024/03/30 02:54:27;;;;;;;40.30;11.80;;;13.80;13.90;;;;;;4907928;29;20196;-82
2024/03/30 02:56:52;;;;;;;39.83;13.03;;;13.80;13.50;;;;;;4921549;29;20268;-81
2024/03/30 02:59:18;;;;;;;45.97;13.43;;;13.80;13.40;;;;;;4905505;29;20239;-80
2024/03/30 03:01:45;;;;;;;35.40;12.50;;;13.80;13.30;;;;;;4922092;29;20204;-80
2024/03/30 03:04:11;;;;;;;33.10;11.90;;;13.80;13.20;;;;;;4905215;29;20193;-80
2024/03/30 03:06:36;;;;;;;39.83;13.37;;;13.90;12.60;;;;;;4918830;29;20428;-80
2024/03/30 03:09:03;;;;;;;35.90;11.80;;;13.90;12.40;;;;;;4913919;29;20467;-80
2024/03/30 03:11:29;;;;;;;40.57;12.70;;;13.90;12.60;;;;;;4937737;29;20204;-82
2024/03/30 03:17:16;;;;;;;36.10;12.40;;;14.00;12.90;;;;;;4929247;29;20599;-80
2024/03/30 03:19:42;;;;;;;37.87;11.27;;;14.00;13.10;;;;;;4920552;29;20467;-81
2024/03/30 03:22:07;;;;;;;37.57;12.43;;;14.00;11.90;;;;;;4936526;29;20636;-80
2024/03/30 03:24:33;;;;;;;45.53;12.20;;;14.10;11.40;;;;;;4922024;29;20188;-83
2024/03/30 03:26:59;;;;;;;46.83;12.13;;;14.10;11.20;;;;;;4906438;29;20648;-80
2024/03/30 03:29:24;;;;;;;38.20;12.77;;;14.10;11.80;;;;;;4921661;29;20214;-81
2024/03/30 03:31:50;;;;;;;38.33;12.10;;;14.10;12.80;;;;;;4911721;29;20188;-81
2024/03/30 03:34:15;;;;;;;41.07;13.03;;;14.00;12.20;;;;;;4920038;29;20513;-80
2024/03/30 03:36:41;;;;;;;36.63;12.20;;;14.00;12.50;;;;;;4918761;29;20192;-80
2024/03/30 03:39:07;;;;;;;34.97;11.10;;;14.00;12.00;;;;;;4919104;29;20279;-81
2024/03/30 03:41:33;;;;;;;42.03;11.63;;;14.00;11.50;;;;;;4902588;29;20523;-80
2024/03/30 03:43:58;;;;;;;43.27;11.67;;;14.00;11.10;;;;;;4937496;29;21015;-81
2024/03/30 03:46:24;;;;;;;39.73;10.87;;;14.10;11.40;;;;;;4914750;29;20196;-82
2024/03/30 03:48:49;;;;;;;28.50;11.07;;;14.10;11.10;;;;;;4918777;29;20211;-80
2024/03/30 03:51:15;;;;;;;34.53;11.90;;;14.10;11.20;;;;;;4902407;29;20201;-80
2024/03/30 03:53:41;;;;;;;34.30;11.23;;;14.10;9.80;;;;;;4902875;29;20180;-80
2024/03/30 03:56:07;;;;;;;37.63;12.67;;;14.10;10.20;;;;;;4920322;29;20487;-82
2024/03/30 03:58:32;;;;;;;31.47;11.50;;;14.10;9.10;;;;;;4910655;29;20271;-81
2024/03/30 04:01:03;;;;;;;26.60;11.03;;;14.20;9.10;;;;;;4939049;29;20267;-81
2024/03/30 04:03:29;;;;;;;27.90;10.73;;;14.20;9.70;;;;;;4938775;29;20436;-81
2024/03/30 04:05:54;;;;;;;35.43;10.10;;;14.20;9.20;;;;;;4910531;29;20441;-80
2024/03/30 04:08:21;;;;;;;25.73;10.57;;;14.20;9.10;;;;;;4908519;29;20254;-82
2024/03/30 04:10:46;;;;;;;27.03;8.90;;;14.20;8.90;;;;;;4933751;29;20610;-82
2024/03/30 04:13:12;;;;;;;25.10;9.53;;;14.30;8.40;;;;;;4926801;29;20467;-81
2024/03/30 04:15:37;;;;;;;30.87;9.40;;;14.40;6.30;;;;;;4918721;29;20255;-81
2024/03/30 04:18:03;;;;;;;22.13;7.80;;;14.50;7.60;;;;;;4920570;29;20235;-81
2024/03/30 04:20:28;;;;;;;28.80;9.60;;;14.50;6.40;;;;;;4905700;29;20263;-81
2024/03/30 04:22:54;;;;;;;27.07;8.30;;;14.50;8.40;;;;;;4903267;29;20196;-81
2024/03/30 04:25:19;;;;;;;33.03;9.27;;;14.60;7.40;;;;;;4929951;29;20638;-84
2024/03/30 04:27:45;;;;;;;26.63;8.80;;;14.70;7.50;;;;;;4935252;29;20188;-82
2024/03/30 04:30:11;;;;;;;31.63;7.97;;;14.70;7.80;;;;;;4908788;29;20311;-82
2024/03/30 04:32:36;;;;;;;27.70;8.90;;;14.80;6.20;;;;;;4938975;29;20192;-83
2024/03/30 04:35:03;;;;;;;32.60;9.80;;;14.80;5.50;;;;;;4943819;29;20435;-81
2024/03/30 04:37:28;;;;;;;20.67;8.77;;;14.80;5.20;;;;;;4925737;29;20526;-81
2024/03/30 04:39:54;;;;;;;27.60;9.47;;;14.90;5.50;;;;;;4918193;29;20449;-81
2024/03/30 04:42:19;;;;;;;17.27;8.00;;;14.90;6.10;;;;;;4902681;29;20181;-82
2024/03/30 04:44:45;;;;;;;19.90;8.47;;;14.90;6.70;;;;;;4919417;29;20200;-82
2024/03/30 04:47:11;;;;;;;25.40;8.27;;;14.90;6.60;;;;;;4924291;29;20191;-81
2024/03/30 04:49:37;;;;;;;30.13;8.60;;;14.90;6.70;;;;;;4939472;29;20282;-82
2024/03/30 04:52:03;;;;;;;21.90;8.90;;;14.90;6.80;;;;;;4918249;29;20429;-81
2024/03/30 04:54:28;;;;;;;20.20;7.87;;;14.90;6.60;;;;;;4902597;29;20557;-80
2024/03/30 04:56:54;;;;;;;21.33;8.53;;;14.90;6.40;;;;;;4901967;29;20193;-82
2024/03/30 04:59:20;;;;;;;26.00;8.63;;;14.90;5.50;;;;;;4932211;29;20443;-82
2024/03/30 05:01:45;;;;;;;30.43;9.03;;;14.80;5.90;;;;;;4921207;29;20199;-82
2024/03/30 05:04:10;;;;;;;25.40;8.40;;;14.70;5.50;;;;;;4934261;29;20189;-79
2024/03/30 05:06:36;;;;;;;21.97;8.17;;;14.50;6.00;;;;;;4901947;29;20192;-80
2024/03/30 05:09:02;;;;;;;27.17;9.30;;;14.50;6.00;;;;;;4901964;29;20213;-82
2024/03/30 05:11:28;;;;;;;24.67;8.90;;;14.50;6.20;;;;;;4902353;29;20252;-80
2024/03/30 05:13:53;;;;;;;25.00;9.90;;;14.40;6.90;;;;;;4919415;29;20484;-80
2024/03/30 05:16:19;;;;;;;33.47;8.63;;;14.40;6.80;;;;;;4917966;29;20541;-80
2024/03/30 05:18:44;;;;;;;28.60;9.47;;;14.50;7.30;;;;;;4919031;29;20188;-80
2024/03/30 05:21:10;;;;;;;25.73;7.97;;;14.50;7.00;;;;;;4942767;23;20359;-78
2024/03/30 05:23:37;;;;;;;30.83;8.40;;;14.60;7.40;;;;;;4932916;29;20321;-77
2024/03/30 05:26:09;;;;;;;19.50;8.10;;;14.60;7.60;;;;;;4954163;29;20191;-77
2024/03/30 05:28:36;;;;;;;16.97;7.60;;;14.50;5.50;;;;;;4947067;29;20428;-77
2024/03/30 05:31:18;;;;;;;26.97;9.30;;;14.50;6.10;;;;;;4934861;29;20579;-78
2024/03/30 05:33:43;;;;;;;24.50;8.50;;;14.40;5.70;;;;;;4935121;29;20448;-78
2024/03/30 05:36:09;;;;;;;24.50;7.97;;;14.50;6.70;;;;;;4936215;29;20443;-77
2024/03/30 05:38:34;;;;;;;29.93;9.40;;;14.50;7.10;;;;;;4935797;29;20211;-77
2024/03/30 05:41:00;;;;;;;26.13;8.97;;;14.60;7.30;;;;;;4939446;29;20310;-77
2024/03/30 05:43:26;;;;;;;21.80;8.37;;;14.60;7.20;;;;;;4932720;29;20758;-77
2024/03/30 05:45:56;;;;;;;30.57;9.27;;;14.70;7.80;;;;;;4926069;29;20203;-79
2024/03/30 05:48:22;;;;;;;20.97;8.90;;;14.70;8.40;;;;;;4937867;29;20491;-79
2024/03/30 05:50:49;;;;;;;26.17;8.27;;;14.70;8.90;;;;;;4937317;29;20582;-80
2024/03/30 05:53:15;;;;;;;27.47;9.10;;;14.80;8.80;;;;;;4938918;29;20263;-78
2024/03/30 05:55:41;;;;;;;21.13;9.10;;;14.60;7.80;;;;;;4927470;29;20428;-77
2024/03/30 05:58:09;;;;;;;26.40;9.57;;;14.50;6.50;;;;;;4937741;29;20431;-77
2024/03/30 06:00:35;;;;;;;22.87;9.00;;;14.50;5.60;;;;;;4938223;29;20452;-78
2024/03/30 06:03:01;;;;;;;20.40;8.27;;;14.70;5.10;;;;;;4929038;29;20442;-77
2024/03/30 06:05:26;;;;;;;28.17;8.90;;;14.70;4.50;;;;;;4937995;29;20535;-77
2024/03/30 06:07:52;;;;;;;23.83;7.77;;;14.80;5.90;;;;;;4936583;29;20272;-76
2024/03/30 06:10:18;;;;;;;23.30;8.93;;;14.80;5.40;;;;;;4931452;29;20219;-77
2024/03/30 06:12:43;;;;;;;33.70;8.70;;;14.90;5.50;;;;;;4937599;29;20267;-78
2024/03/30 06:15:08;;;;;;;26.63;8.90;;;14.90;5.20;;;;;;4937393;29;20210;-76
2024/03/30 06:17:38;;;;;;;21.10;8.17;;;15.00;4.80;;;;;;4937414;29;20347;-78
2024/03/30 06:20:08;;;;;;;22.43;8.70;;;15.10;4.70;;;;;;4937501;29;20239;-78
2024/03/30 06:22:34;;;;;;;20.80;8.60;;;15.20;4.20;;;;;;4924952;29;20451;-78
2024/03/30 06:25:01;;;;;;;29.83;8.80;;;15.30;4.30;;;;;;4939410;29;20806;-78
2024/03/30 06:27:27;;;;;;;21.13;8.37;;;15.30;3.60;;;;;;4948175;29;20462;-77
2024/03/30 06:29:52;;;;;;;22.43;8.27;;;15.40;3.70;;;;;;4939385;29;20504;-79
2024/03/30 06:32:18;;;;;;;23.60;8.60;;;15.40;3.50;;;;;;4937685;29;20540;-78
2024/03/30 06:34:43;;;;;;;23.47;8.07;;;15.50;2.90;;;;;;4938098;29;20597;-77
2024/03/30 06:37:09;;;;;;;23.67;8.43;;;15.60;3.20;;;;;;4945800;29;20246;-77
2024/03/30 06:45:03;;;;;;;22.93;8.37;;;15.70;4.90;;;;;;4937680;29;20463;-77
2024/03/30 06:47:28;;;;;;;26.67;8.40;;;15.70;4.70;;;;;;4927504;29;20443;-78
2024/03/30 06:49:54;;;;;;;20.77;8.00;;;15.80;4.50;;;;;;4944095;28;20294;-78
2024/03/30 06:52:19;;;;;;;24.07;9.10;;;15.80;5.70;;;;;;4937324;29;20243;-77
2024/03/30 06:54:45;;;;;;;26.07;9.20;;;15.70;8.60;;;;;;4923474;29;20317;-78
2024/03/30 06:57:10;;;;;;;20.10;9.40;;;15.70;8.20;;;;;;4927847;29;20176;-78
2024/03/30 07:02:17;;;;;;;21.17;9.40;;;15.60;9.30;;;;;;4938231;29;20215;-78
2024/03/30 07:04:46;;;;;;;16.33;8.90;;;15.60;9.50;;;;;;4938284;29;20424;-78
2024/03/30 07:07:13;;;;;;;22.73;8.27;;;15.60;9.90;;;;;;4924649;29;20469;-77
2024/03/30 07:09:50;;;;;;;31.63;8.93;;;15.50;10.00;;;;;;4935822;29;20506;-81
2024/03/30 07:12:19;;;;;;;15.67;7.87;;;15.50;10.50;;;;;;4903381;29;20414;-79
2024/03/30 07:14:57;;;;;;;22.27;8.43;;;15.50;10.80;;;;;;4917320;29;20421;-79
2024/03/30 07:17:50;;;;;;;21.60;8.83;;;15.50;10.00;;;;;;4919605;29;20893;-78
2024/03/30 07:20:20;;;;;;;18.23;7.50;;;15.50;8.80;;;;;;4918870;29;20483;-79
2024/03/30 07:22:54;;;;;;;22.27;8.93;;;15.50;8.90;;;;;;4923196;29;20515;-78
2024/03/30 07:25:33;;;;;;;24.53;8.50;;;15.50;8.00;;;;;;4931968;29;20419;-79
2024/03/30 07:28:05;;;;;;;23.23;8.47;;;15.60;6.60;;;;;;4933084;29;20979;-78
2024/03/30 07:30:37;;;;;;;18.20;8.87;;;15.60;8.20;;;;;;4917188;29;20474;-78
2024/03/30 07:33:11;;;;;;;22.87;8.80;;;15.60;7.00;;;;;;4915938;29;20437;-78
2024/03/30 07:35:37;;;;;;;20.50;7.83;;;15.70;6.90;;;;;;4934079;29;20829;-80
2024/03/30 07:38:05;;;;;;;27.33;9.00;;;15.70;6.90;;;;;;4929795;29;20421;-78
2024/03/30 07:40:31;;;;;;;34.97;9.60;;;15.70;6.30;;;;;;4932268;29;20614;-77
2024/03/30 07:43:01;;;;;;;20.77;9.13;;;15.70;6.50;;;;;;4935948;29;20432;-77
2024/03/30 07:45:51;;;;;;;31.40;9.53;;;15.70;7.40;;;;;;4930478;29;20247;-79
2024/03/30 07:48:29;;;;;;;39.53;9.80;;;15.70;6.10;;;;;;4919010;29;20471;-78
2024/03/30 07:50:57;;;;;;;25.10;9.17;;;15.70;5.70;;;;;;4929669;29;20468;-77
2024/03/30 07:53:25;;;;;;;24.93;9.10;;;15.80;5.80;;;;;;4932031;29;20463;-77
2024/03/30 07:55:52;;;;;;;29.47;10.90;;;15.80;5.90;;;;;;4932967;29;20838;-78
2024/03/30 07:58:19;;;;;;;29.33;10.57;;;15.80;5.10;;;;;;4917460;29;20433;-79
2024/03/30 08:00:55;;;;;;;32.63;10.87;;;15.80;5.50;;;;;;4931219;29;20443;-79
2024/03/30 08:06:11;;;;;;;31.67;11.00;;;15.80;6.20;;;;;;4930764;29;20806;-78
2024/03/30 08:08:45;;;;;;;30.43;9.23;;;15.80;6.20;;;;;;4930586;29;20434;-78
2024/03/30 08:11:18;;;;;;;38.50;10.57;;;15.80;5.80;;;;;;4931791;29;20450;-78
2024/03/30 08:13:54;;;;;;;26.33;9.40;;;15.80;5.60;;;;;;4936105;29;20825;-78
2024/03/30 08:16:48;;;;;;;39.10;10.60;;;15.80;5.80;;;;;;4925395;29;20413;-79
2024/03/30 08:19:23;;;;;;;28.47;11.30;;;15.80;6.20;;;;;;4930835;29;20413;-78
2024/03/30 08:22:01;;;;;;;28.97;9.87;;;15.80;6.50;;;;;;4924950;29;20412;-78
2024/03/30 08:24:31;;;;;;;31.20;10.60;;;15.80;6.20;;;;;;4909563;29;20476;-78
2024/03/30 08:27:04;;;;;;;33.37;11.30;;;15.80;6.80;;;;;;4932132;29;20908;-77
2024/03/30 08:29:32;;;;;;;29.33;10.10;;;15.70;6.80;;;;;;4924049;29;20459;-77
2024/03/30 08:32:24;;;;;;;37.27;11.37;;;15.70;7.40;;;;;;4933467;29;20725;-77
2024/03/30 08:34:53;;;;;;;31.50;10.80;;;15.70;8.70;;;;;;4928512;29;20450;-77
2024/03/30 08:37:38;;;;;;;27.87;10.27;;;15.70;8.90;;;;;;4920528;29;20417;-77
2024/03/30 08:40:14;;;;;;;24.73;9.80;;;15.60;8.90;;;;;;4932007;29;20444;-77
2024/03/30 08:42:52;;;;;;;25.80;9.70;;;15.60;9.50;;;;;;4931904;29;20431;-78
2024/03/30 08:45:27;;;;;;;25.67;10.97;;;15.60;9.70;;;;;;4931353;29;20454;-78
2024/03/30 08:48:06;;;;;;;25.33;9.80;;;15.50;9.90;;;;;;4925110;29;20427;-79
2024/03/30 08:51:04;;;;;;;29.27;11.27;;;15.60;10.50;;;;;;4926250;29;20472;-77
2024/03/30 08:53:35;;;;;;;33.87;11.20;;;15.50;10.40;;;;;;4931219;29;20505;-78
2024/03/30 08:56:18;;;;;;;31.37;10.90;;;15.50;10.70;;;;;;4920348;29;20798;-77
2024/03/30 08:58:47;;;;;;;31.60;10.27;;;15.40;10.90;;;;;;4929400;29;20420;-78
2024/03/30 09:01:34;;;;;;;28.13;10.23;;;15.40;11.10;;;;;;4932789;29;20793;-77
2024/03/30 09:04:21;;;;;;;24.63;9.73;;;15.40;11.00;;;;;;4927444;29;20531;-77
2024/03/30 09:06:49;;;;;;;30.93;10.23;;;15.40;11.40;;;;;;4907577;29;20440;-80
2024/03/30 09:09:20;;;;;;;26.10;10.93;;;15.40;11.00;;;;;;4927203;29;20460;-79
2024/03/30 09:11:56;;;;;;;36.50;11.90;;;15.40;11.80;;;;;;4927694;29;20456;-79
2024/03/30 09:14:35;;;;;;;22.70;11.27;;;15.40;11.90;;;;;;4930499;29;20498;-80
2024/03/30 09:20:10;;;;;;;35.80;12.57;;;15.40;12.40;;;;;;4938681;23;21040;-77
2024/03/30 09:22:45;;;;;;;29.43;11.07;;;15.40;13.60;;;;;;4938682;29;20514;-80
2024/03/30 09:25:16;;;;;;;37.90;13.13;;;15.40;14.00;;;;;;4933617;29;20474;-79
2024/03/30 09:28:35;;;;;;;30.90;12.00;;;15.40;13.20;;;;;;4934466;29;20949;-79
2024/03/30 09:31:06;;;;;;;26.87;12.47;;;15.40;13.80;;;;;;4933057;29;20503;-79
2024/03/30 09:33:50;;;;;;;;;;;;;;;;;;;;;
2024/03/30 09:36:20;;;;;;;29.97;11.90;;;15.40;13.70;;;;;;4934650;29;20426;-79
2024/03/30 09:42:30;;;;;;;32.17;11.90;;;15.40;13.70;;;;;;4921829;29;20432;-80
2024/03/30 09:45:00;;;;;;;31.27;11.40;;;15.40;13.50;;;;;;4925309;29;20435;-80
2024/03/30 09:47:26;;;;;;;30.23;13.00;;;15.40;13.90;;;;;;4933861;29;20943;-79
2024/03/30 09:50:00;;;;;;;45.50;14.50;;;15.40;14.40;;;;;;4937956;29;20471;-80
2024/03/30 09:52:31;;;;;;;28.30;12.93;;;15.40;14.80;;;;;;4931782;29;20415;-81
2024/03/30 09:55:11;;;;;;;26.60;13.27;;;15.40;14.70;;;;;;4917360;29;20446;-79
2024/03/30 09:58:01;;;;;;;26.77;12.77;;;15.40;15.00;;;;;;4920360;29;20443;-78
2024/03/30 10:00:32;;;;;;;29.23;11.60;;;15.40;15.20;;;;;;4933006;29;20447;-80
2024/03/30 10:03:23;;;;;;;34.47;12.43;;;15.30;15.40;;;;;;4936995;29;20415;-80
2024/03/30 10:06:05;;;;;;;40.17;13.93;;;15.40;14.80;;;;;;4923501;29;20921;-78
2024/03/30 10:08:34;;;;;;;40.43;13.40;;;15.40;14.30;;;;;;4927934;29;20471;-78
2024/03/30 10:11:17;;;;;;;27.57;13.20;;;15.40;14.90;;;;;;4934509;29;21062;-79
2024/03/30 10:13:59;;;;;;;34.37;12.13;;;15.40;15.80;;;;;;4934003;29;20769;-79
2024/03/30 10:16:32;;;;;;;34.20;11.70;;;15.50;16.00;;;;;;4929737;29;20583;-81
2024/03/30 10:19:11;;;;;;;34.90;13.53;;;15.40;16.70;;;;;;4934161;29;20426;-80
2024/03/30 10:21:49;;;;;;;37.23;13.40;;;15.40;16.80;;;;;;4933765;29;20471;-80
2024/03/30 10:24:46;;;;;;;35.37;13.07;;;15.40;17.10;;;;;;4936719;29;20511;-80
2024/03/30 10:27:16;;;;;;;31.90;12.33;;;15.40;17.30;;;;;;4929707;29;20553;-78
2024/03/30 10:29:48;;;;;;;29.30;13.67;;;15.40;18.50;;;;;;4904986;29;20467;-79
2024/03/30 10:32:17;;;;;;;29.93;12.40;;;15.40;17.70;;;;;;4922701;29;20416;-79
2024/03/30 10:34:47;;;;;;;33.83;13.57;;;15.40;17.80;;;;;;4918732;29;20424;-79
2024/03/30 10:37:19;;;;;;;22.93;12.23;;;15.40;17.50;;;;;;4933429;29;20980;-79
2024/03/30 10:39:48;;;;;;;33.70;13.40;;;15.40;17.90;;;;;;4933355;29;20473;-79
2024/03/30 10:42:43;;;;;;;26.60;11.57;;;15.40;17.10;;;;;;4921511;29;20417;-78
2024/03/30 10:45:47;;;;;;;28.23;13.30;;;15.50;17.20;;;;;;4902833;29;20476;-79
2024/03/30 10:48:21;;;;;;;30.10;13.67;;;15.50;17.40;;;;;;4890111;29;20429;-80
2024/03/30 10:50:56;;;;;;;31.03;12.83;;;15.50;17.30;;;;;;4933972;29;20484;-80
2024/03/30 10:53:29;;;;;;;30.00;13.37;;;15.50;17.40;;;;;;4929232;29;20928;-78
2024/03/30 10:56:03;;;;;;;31.10;12.63;;;15.50;17.50;;;;;;4920341;29;20421;-79
2024/03/30 10:58:32;;;;;;;32.27;11.90;;;15.50;17.70;;;;;;4912291;29;20789;-79
2024/03/30 11:01:05;;;;;;;29.10;14.37;;;15.50;17.90;;;;;;4920734;29;20443;-78
2024/03/30 11:03:41;;;;;;;29.03;12.67;;;15.60;17.90;;;;;;4918807;29;20861;-78
2024/03/30 11:06:27;;;;;;;28.60;11.30;;;15.60;18.50;;;;;;4919202;29;20460;-79
2024/03/30 11:09:00;;;;;;;35.77;12.53;;;15.60;18.70;;;;;;4919842;29;20783;-79
2024/03/30 11:11:25;;;;;;;28.80;11.60;;;15.60;18.30;;;;;;4931394;29;20455;-79
2024/03/30 11:14:01;;;;;;;30.93;13.03;;;15.60;18.40;;;;;;4940109;29;20837;-78
2024/03/30 11:16:42;;;;;;;32.40;13.17;;;15.70;18.10;;;;;;4936853;29;20420;-79
2024/03/30 11:19:24;;;;;;;24.63;11.90;;;15.60;18.00;;;;;;4921493;29;20448;-80
2024/03/30 11:22:37;;;;;;;26.33;12.50;;;15.70;17.80;;;;;;4921070;29;20999;-78
2024/03/30 11:25:25;;;;;;;34.50;11.90;;;15.70;17.90;;;;;;4884647;29;20813;-78
2024/03/30 11:28:22;;;;;;;35.20;14.73;;;15.70;17.50;;;;;;4933702;29;20416;-78
2024/03/30 11:31:15;;;;;;;31.53;13.67;;;15.70;17.70;;;;;;4938192;29;20468;-80
2024/03/30 11:33:58;;;;;;;32.57;13.10;;;15.80;17.60;;;;;;4937451;29;20416;-77
2024/03/30 11:36:51;;;;;;;26.90;13.00;;;15.80;17.80;;;;;;4916737;29;20425;-78
2024/03/30 11:39:42;;;;;;;31.80;11.87;;;15.90;17.10;;;;;;4920144;29;20925;-78
2024/03/30 11:42:25;;;;;;;33.17;13.03;;;15.90;18.70;;;;;;4937666;29;20426;-78
2024/03/30 11:45:13;;;;;;;38.23;12.67;;;15.90;18.90;;;;;;4936909;29;20424;-78
2024/03/30 11:47:49;;;;;;;37.17;13.67;;;16.00;17.10;;;;;;4937343;29;20423;-77
2024/03/30 11:50:18;;;;;;;35.33;13.93;;;16.00;16.30;;;;;;4922920;29;20494;-80
2024/03/30 11:52:49;;;;;;;30.13;13.70;;;16.00;16.00;;;;;;4920940;29;20417;-76
2024/03/30 11:55:31;;;;;;;32.73;11.90;;;16.10;15.50;;;;;;4902821;29;20429;-77
2024/03/30 11:58:03;;;;;;;31.03;12.50;;;16.10;16.20;;;;;;4917255;29;20475;-77
2024/03/30 12:01:04;;;;;;;30.13;12.20;;;16.10;16.20;;;;;;4906944;29;20451;-78
2024/03/30 12:07:24;;;;;;;27.57;12.53;;;16.10;16.50;;;;;;4919776;29;20456;-79
2024/03/30 12:09:54;;;;;;;32.13;12.80;;;16.10;16.80;;;;;;4921006;29;20479;-79
2024/03/30 12:12:30;;;;;;;34.10;12.10;;;16.10;16.90;;;;;;4914160;29;20442;-80
2024/03/30 12:14:58;;;;;;;31.80;12.57;;;16.10;16.60;;;;;;4939011;29;20430;-78
2024/03/30 12:17:51;;;;;;;25.70;11.83;;;16.10;16.00;;;;;;4904332;29;20795;-80
2024/03/30 12:20:25;;;;;;;29.43;11.73;;;16.10;15.40;;;;;;4904483;29;20481;-79
2024/03/30 12:23:38;;;;;;;28.30;11.60;;;16.10;15.50;;;;;;4940135;29;20486;-79
2024/03/30 12:26:12;;;;;;;35.90;12.93;;;16.10;15.50;;;;;;4919672;29;20443;-78
2024/03/30 12:28:49;;;;;;;27.27;14.47;;;16.10;14.00;;;;;;4913415;29;20420;-79
2024/03/30 12:31:21;;;;;;;29.03;12.73;;;16.10;14.60;;;;;;4934432;29;20991;-79
2024/03/30 12:34:08;;;;;;;32.03;13.70;;;16.10;13.60;;;;;;4920443;29;20425;-78
2024/03/30 12:36:37;;;;;;;32.00;14.90;;;16.10;14.20;;;;;;4932152;29;20416;-79
2024/03/30 12:39:09;;;;;;;35.60;13.87;;;16.20;14.30;;;;;;4939955;29;20412;-79
2024/03/30 12:41:34;;;;;;;32.70;14.13;;;16.10;14.30;;;;;;4921944;29;20491;-78
2024/03/30 12:44:06;;;;;;;31.23;12.77;;;16.20;14.30;;;;;;4924434;29;20421;-79
2024/03/30 12:46:48;;;;;;;31.77;13.30;;;16.20;14.10;;;;;;4903326;29;20181;-79
2024/03/30 12:49:27;;;;;;;29.63;11.80;;;16.20;15.20;;;;;;4903193;29;21039;-79
2024/03/30 12:52:07;;;;;;;25.53;12.13;;;16.20;13.60;;;;;;4920754;29;20421;-78
2024/03/30 12:54:43;;;;;;;31.87;13.50;;;16.30;13.00;;;;;;4917030;29;20846;-79
2024/03/30 12:57:21;;;;;;;39.67;12.47;;;16.40;13.00;;;;;;4926590;29;20451;-78
2024/03/30 13:00:01;;;;;;;25.43;10.70;;;16.50;11.60;;;;;;4931982;29;20446;-79
2024/03/30 13:03:33;;;;;;;29.00;11.60;;;16.60;11.30;;;;;;4939314;29;21057;-78
2024/03/30 13:05:49;;;;;;;18.73;9.00;;;16.60;10.80;;;;;;4908344;29;20442;-79
2024/03/30 13:08:30;;;;;;;20.03;9.00;;;16.50;10.20;;;;;;4920290;29;20440;-79
2024/03/30 13:10:58;;;;;;;18.27;8.87;;;16.50;9.80;;;;;;4920930;29;20984;-78
2024/03/30 13:13:37;;;;;;;17.47;9.03;;;16.40;10.20;;;;;;4926013;29;20421;-78
2024/03/30 13:16:16;;;;;;;16.50;9.17;;;16.40;10.20;;;;;;4932151;29;20427;-77
2024/03/30 13:19:00;;;;;;;16.27;8.17;;;16.50;9.90;;;;;;4943887;29;20417;-77
2024/03/30 13:21:31;;;;;;;22.70;8.80;;;16.40;10.20;;;;;;4949833;29;20467;-77
2024/03/30 13:24:08;;;;;;;20.37;9.57;;;16.40;9.40;;;;;;4951962;29;20415;-77